sensor_id;sensor_type;location;lat;lon;timestamp;P1;durP1;ratioP1;P2;durP2;ratioP2
1703;SDS011;849;48.780;9.216;2023-07-22T00:01:25;45.00;;;2.47;;
1703;SDS011;849;48.780;9.216;2023-07-22T00:03:56;44.77;;;2.50;;
1703;SDS011;849;48.780;9.216;2023-07-22T00:06:27;44.70;;;2.30;;
1703;SDS011;849;48.780;9.216;2023-07-22T00:08:58;44.70;;;2.40;;
1703;SDS011;849;48.780;9.216;2023-07-22T00:11:28;44.73;;;2.40;;
1703;SDS011;849;48.780;9.216;2023-07-22T00:13:59;44.80;;;2.30;;
1703;SDS011;849;48.780;9.216;2023-07-22T00:16:30;44.80;;;2.40;;
1703;SDS011;849;48.780;9.216;2023-07-22T00:19:01;44.93;;;2.33;;
1703;SDS011;849;48.780;9.216;2023-07-22T00:21:32;44.70;;;2.20;;
1703;SDS011;849;48.780;9.216;2023-07-22T00:24:04;44.90;;;2.50;;
1703;SDS011;849;48.780;9.216;2023-07-22T00:26:35;44.60;;;2.30;;
1703;SDS011;849;48.780;9.216;2023-07-22T00:29:06;44.80;;;2.33;;
1703;SDS011;849;48.780;9.216;2023-07-22T00:31:37;44.70;;;2.10;;
1703;SDS011;849;48.780;9.216;2023-07-22T00:34:08;44.90;;;2.23;;
1703;SDS011;849;48.780;9.216;2023-07-22T00:36:39;44.90;;;2.30;;
1703;SDS011;849;48.780;9.216;2023-07-22T00:39:10;44.70;;;2.20;;
1703;SDS011;849;48.780;9.216;2023-07-22T00:41:44;44.83;;;2.40;;
1703;SDS011;849;48.780;9.216;2023-07-22T00:44:14;45.00;;;2.10;;
1703;SDS011;849;48.780;9.216;2023-07-22T00:46:45;44.70;;;2.40;;
1703;SDS011;849;48.780;9.216;2023-07-22T00:49:16;44.97;;;2.30;;
1703;SDS011;849;48.780;9.216;2023-07-22T00:51:47;45.10;;;2.30;;
1703;SDS011;849;48.780;9.216;2023-07-22T00:54:18;44.90;;;2.17;;
1703;SDS011;849;48.780;9.216;2023-07-22T00:56:49;44.87;;;2.30;;
1703;SDS011;849;48.780;9.216;2023-07-22T00:59:20;44.90;;;2.33;;
1703;SDS011;849;48.780;9.216;2023-07-22T01:01:51;45.10;;;2.20;;
1703;SDS011;849;48.780;9.216;2023-07-22T01:04:22;44.90;;;2.40;;
1703;SDS011;849;48.780;9.216;2023-07-22T01:06:54;44.90;;;2.40;;
1703;SDS011;849;48.780;9.216;2023-07-22T01:09:25;45.00;;;2.30;;
1703;SDS011;849;48.780;9.216;2023-07-22T01:11:56;44.80;;;2.40;;
1703;SDS011;849;48.780;9.216;2023-07-22T01:14:22;44.70;;;2.20;;
1703;SDS011;849;48.780;9.216;2023-07-22T01:16:53;44.40;;;2.10;;
1703;SDS011;849;48.780;9.216;2023-07-22T01:19:20;44.80;;;2.20;;
1703;SDS011;849;48.780;9.216;2023-07-22T01:21:46;44.90;;;2.03;;
1703;SDS011;849;48.780;9.216;2023-07-22T01:24:13;45.07;;;2.67;;
1703;SDS011;849;48.780;9.216;2023-07-22T01:26:45;44.90;;;2.10;;
1703;SDS011;849;48.780;9.216;2023-07-22T01:29:16;44.70;;;2.10;;
1703;SDS011;849;48.780;9.216;2023-07-22T01:31:47;44.80;;;2.17;;
1703;SDS011;849;48.780;9.216;2023-07-22T01:34:20;44.90;;;2.37;;
1703;SDS011;849;48.780;9.216;2023-07-22T01:36:52;44.50;;;2.10;;
1703;SDS011;849;48.780;9.216;2023-07-22T01:39:24;44.87;;;2.30;;
1703;SDS011;849;48.780;9.216;2023-07-22T01:41:54;44.90;;;2.20;;
1703;SDS011;849;48.780;9.216;2023-07-22T01:44:25;44.90;;;2.17;;
1703;SDS011;849;48.780;9.216;2023-07-22T01:46:56;44.90;;;2.20;;
1703;SDS011;849;48.780;9.216;2023-07-22T01:49:27;44.67;;;2.10;;
1703;SDS011;849;48.780;9.216;2023-07-22T01:51:58;45.10;;;2.13;;
1703;SDS011;849;48.780;9.216;2023-07-22T01:54:29;44.80;;;2.10;;
1703;SDS011;849;48.780;9.216;2023-07-22T01:56:59;44.93;;;2.00;;
1703;SDS011;849;48.780;9.216;2023-07-22T01:59:30;44.80;;;2.10;;
1703;SDS011;849;48.780;9.216;2023-07-22T02:02:01;44.80;;;2.30;;
1703;SDS011;849;48.780;9.216;2023-07-22T02:04:32;44.90;;;2.20;;
1703;SDS011;849;48.780;9.216;2023-07-22T02:07:02;44.80;;;2.20;;
1703;SDS011;849;48.780;9.216;2023-07-22T02:09:33;44.90;;;2.10;;
1703;SDS011;849;48.780;9.216;2023-07-22T02:12:04;44.90;;;2.07;;
1703;SDS011;849;48.780;9.216;2023-07-22T02:14:37;45.00;;;2.20;;
1703;SDS011;849;48.780;9.216;2023-07-22T02:17:08;44.87;;;2.10;;
1703;SDS011;849;48.780;9.216;2023-07-22T02:19:40;44.93;;;2.40;;
1703;SDS011;849;48.780;9.216;2023-07-22T02:22:11;45.03;;;2.50;;
1703;SDS011;849;48.780;9.216;2023-07-22T02:24:38;44.97;;;2.20;;
1703;SDS011;849;48.780;9.216;2023-07-22T02:27:09;45.00;;;2.47;;
1703;SDS011;849;48.780;9.216;2023-07-22T02:29:40;44.90;;;2.10;;
1703;SDS011;849;48.780;9.216;2023-07-22T02:32:10;44.90;;;2.20;;
1703;SDS011;849;48.780;9.216;2023-07-22T02:34:41;44.80;;;2.20;;
1703;SDS011;849;48.780;9.216;2023-07-22T02:37:12;44.90;;;2.10;;
1703;SDS011;849;48.780;9.216;2023-07-22T02:39:43;44.80;;;2.10;;
1703;SDS011;849;48.780;9.216;2023-07-22T02:42:14;45.00;;;2.20;;
1703;SDS011;849;48.780;9.216;2023-07-22T02:44:44;44.90;;;2.20;;
1703;SDS011;849;48.780;9.216;2023-07-22T02:47:15;44.80;;;2.30;;
1703;SDS011;849;48.780;9.216;2023-07-22T02:49:46;44.93;;;2.20;;
1703;SDS011;849;48.780;9.216;2023-07-22T02:52:17;44.90;;;2.30;;
1703;SDS011;849;48.780;9.216;2023-07-22T02:57:54;44.90;;;2.10;;
1703;SDS011;849;48.780;9.216;2023-07-22T03:00:24;45.00;;;2.33;;
1703;SDS011;849;48.780;9.216;2023-07-22T03:02:56;44.90;;;2.20;;
1703;SDS011;849;48.780;9.216;2023-07-22T03:05:35;44.90;;;2.23;;
1703;SDS011;849;48.780;9.216;2023-07-22T03:08:06;45.00;;;2.30;;
1703;SDS011;849;48.780;9.216;2023-07-22T03:10:37;45.00;;;2.23;;
1703;SDS011;849;48.780;9.216;2023-07-22T03:13:08;44.87;;;2.00;;
1703;SDS011;849;48.780;9.216;2023-07-22T03:15:38;45.00;;;2.10;;
1703;SDS011;849;48.780;9.216;2023-07-22T03:18:09;44.97;;;2.40;;
1703;SDS011;849;48.780;9.216;2023-07-22T03:20:40;44.90;;;2.50;;
1703;SDS011;849;48.780;9.216;2023-07-22T03:23:11;45.00;;;2.50;;
1703;SDS011;849;48.780;9.216;2023-07-22T03:25:42;45.00;;;2.30;;
1703;SDS011;849;48.780;9.216;2023-07-22T03:28:13;45.00;;;2.37;;
1703;SDS011;849;48.780;9.216;2023-07-22T03:30:44;44.80;;;2.10;;
1703;SDS011;849;48.780;9.216;2023-07-22T03:33:15;44.90;;;2.20;;
1703;SDS011;849;48.780;9.216;2023-07-22T03:35:45;44.87;;;2.17;;
1703;SDS011;849;48.780;9.216;2023-07-22T03:38:17;45.03;;;2.50;;
1703;SDS011;849;48.780;9.216;2023-07-22T03:40:47;44.80;;;2.30;;
1703;SDS011;849;48.780;9.216;2023-07-22T03:43:18;44.90;;;2.23;;
1703;SDS011;849;48.780;9.216;2023-07-22T03:45:49;45.03;;;2.30;;
1703;SDS011;849;48.780;9.216;2023-07-22T03:48:20;45.00;;;2.60;;
1703;SDS011;849;48.780;9.216;2023-07-22T03:50:51;45.00;;;2.30;;
1703;SDS011;849;48.780;9.216;2023-07-22T03:53:21;45.00;;;2.50;;
1703;SDS011;849;48.780;9.216;2023-07-22T03:55:52;44.80;;;2.10;;
1703;SDS011;849;48.780;9.216;2023-07-22T03:58:23;45.00;;;2.60;;
1703;SDS011;849;48.780;9.216;2023-07-22T04:00:54;45.00;;;2.30;;
1703;SDS011;849;48.780;9.216;2023-07-22T04:03:24;44.90;;;2.20;;
1703;SDS011;849;48.780;9.216;2023-07-22T04:05:56;44.90;;;2.30;;
1703;SDS011;849;48.780;9.216;2023-07-22T04:08:26;45.00;;;2.30;;
1703;SDS011;849;48.780;9.216;2023-07-22T04:10:57;45.07;;;2.60;;
1703;SDS011;849;48.780;9.216;2023-07-22T04:13:28;44.97;;;2.33;;
1703;SDS011;849;48.780;9.216;2023-07-22T04:15:59;44.90;;;2.40;;
1703;SDS011;849;48.780;9.216;2023-07-22T04:18:30;44.90;;;2.20;;
1703;SDS011;849;48.780;9.216;2023-07-22T04:21:04;44.90;;;2.30;;
1703;SDS011;849;48.780;9.216;2023-07-22T04:23:35;45.00;;;2.30;;
1703;SDS011;849;48.780;9.216;2023-07-22T04:26:07;44.80;;;2.10;;
1703;SDS011;849;48.780;9.216;2023-07-22T04:28:38;45.00;;;2.50;;
1703;SDS011;849;48.780;9.216;2023-07-22T04:31:08;44.90;;;2.27;;
1703;SDS011;849;48.780;9.216;2023-07-22T04:33:40;44.90;;;2.40;;
1703;SDS011;849;48.780;9.216;2023-07-22T04:36:11;44.90;;;2.50;;
1703;SDS011;849;48.780;9.216;2023-07-22T04:38:42;44.97;;;2.37;;
1703;SDS011;849;48.780;9.216;2023-07-22T04:41:13;44.93;;;2.20;;
1703;SDS011;849;48.780;9.216;2023-07-22T04:43:44;44.80;;;2.20;;
1703;SDS011;849;48.780;9.216;2023-07-22T04:46:14;45.00;;;2.50;;
1703;SDS011;849;48.780;9.216;2023-07-22T04:48:45;45.10;;;2.20;;
1703;SDS011;849;48.780;9.216;2023-07-22T04:51:16;44.90;;;2.20;;
1703;SDS011;849;48.780;9.216;2023-07-22T04:53:47;44.97;;;2.10;;
1703;SDS011;849;48.780;9.216;2023-07-22T04:56:18;45.07;;;2.57;;
1703;SDS011;849;48.780;9.216;2023-07-22T04:58:48;45.00;;;2.50;;
1703;SDS011;849;48.780;9.216;2023-07-22T05:01:19;45.00;;;2.30;;
1703;SDS011;849;48.780;9.216;2023-07-22T05:03:50;45.00;;;2.30;;
1703;SDS011;849;48.780;9.216;2023-07-22T05:06:21;45.10;;;2.57;;
1703;SDS011;849;48.780;9.216;2023-07-22T05:08:49;44.80;;;2.40;;
1703;SDS011;849;48.780;9.216;2023-07-22T05:11:20;45.00;;;2.27;;
1703;SDS011;849;48.780;9.216;2023-07-22T05:13:53;44.93;;;2.40;;
1703;SDS011;849;48.780;9.216;2023-07-22T05:16:24;45.03;;;2.23;;
1703;SDS011;849;48.780;9.216;2023-07-22T05:18:55;44.90;;;2.50;;
1703;SDS011;849;48.780;9.216;2023-07-22T05:21:25;44.77;;;2.20;;
1703;SDS011;849;48.780;9.216;2023-07-22T05:23:56;45.00;;;2.43;;
1703;SDS011;849;48.780;9.216;2023-07-22T05:26:27;45.00;;;2.50;;
1703;SDS011;849;48.780;9.216;2023-07-22T05:28:58;44.90;;;2.47;;
1703;SDS011;849;48.780;9.216;2023-07-22T05:31:28;45.10;;;2.57;;
1703;SDS011;849;48.780;9.216;2023-07-22T05:33:59;45.00;;;2.47;;
1703;SDS011;849;48.780;9.216;2023-07-22T05:36:30;44.90;;;2.27;;
1703;SDS011;849;48.780;9.216;2023-07-22T05:39:01;44.97;;;2.20;;
1703;SDS011;849;48.780;9.216;2023-07-22T05:41:32;44.97;;;2.30;;
1703;SDS011;849;48.780;9.216;2023-07-22T05:44:03;44.90;;;2.20;;
1703;SDS011;849;48.780;9.216;2023-07-22T05:46:34;44.90;;;2.50;;
1703;SDS011;849;48.780;9.216;2023-07-22T05:49:05;44.90;;;2.20;;
1703;SDS011;849;48.780;9.216;2023-07-22T05:51:36;44.90;;;2.27;;
1703;SDS011;849;48.780;9.216;2023-07-22T05:54:07;45.00;;;2.23;;
1703;SDS011;849;48.780;9.216;2023-07-22T05:56:38;45.00;;;2.17;;
1703;SDS011;849;48.780;9.216;2023-07-22T05:59:08;45.00;;;2.20;;
1703;SDS011;849;48.780;9.216;2023-07-22T06:01:39;44.80;;;2.13;;
1703;SDS011;849;48.780;9.216;2023-07-22T06:04:10;44.80;;;2.30;;
1703;SDS011;849;48.780;9.216;2023-07-22T06:06:41;44.87;;;2.27;;
1703;SDS011;849;48.780;9.216;2023-07-22T06:09:12;44.90;;;2.20;;
1703;SDS011;849;48.780;9.216;2023-07-22T06:11:43;44.83;;;2.40;;
1703;SDS011;849;48.780;9.216;2023-07-22T06:14:13;44.90;;;2.40;;
1703;SDS011;849;48.780;9.216;2023-07-22T06:16:44;44.90;;;2.27;;
1703;SDS011;849;48.780;9.216;2023-07-22T06:19:15;44.90;;;2.23;;
1703;SDS011;849;48.780;9.216;2023-07-22T06:21:46;44.90;;;2.40;;
1703;SDS011;849;48.780;9.216;2023-07-22T06:24:16;44.90;;;2.20;;
1703;SDS011;849;48.780;9.216;2023-07-22T06:26:47;44.87;;;2.27;;
1703;SDS011;849;48.780;9.216;2023-07-22T06:29:18;44.80;;;2.10;;
1703;SDS011;849;48.780;9.216;2023-07-22T06:31:49;44.80;;;2.20;;
1703;SDS011;849;48.780;9.216;2023-07-22T06:34:19;44.90;;;2.27;;
1703;SDS011;849;48.780;9.216;2023-07-22T06:36:50;44.80;;;2.20;;
1703;SDS011;849;48.780;9.216;2023-07-22T06:39:21;44.90;;;2.27;;
1703;SDS011;849;48.780;9.216;2023-07-22T06:41:52;44.80;;;2.03;;
1703;SDS011;849;48.780;9.216;2023-07-22T06:44:22;44.80;;;2.27;;
1703;SDS011;849;48.780;9.216;2023-07-22T06:46:53;44.80;;;2.30;;
1703;SDS011;849;48.780;9.216;2023-07-22T06:49:24;44.90;;;2.20;;
1703;SDS011;849;48.780;9.216;2023-07-22T06:51:55;44.70;;;2.17;;
1703;SDS011;849;48.780;9.216;2023-07-22T06:54:25;45.00;;;2.17;;
1703;SDS011;849;48.780;9.216;2023-07-22T06:56:56;44.80;;;2.10;;
1703;SDS011;849;48.780;9.216;2023-07-22T06:59:27;44.87;;;2.03;;
1703;SDS011;849;48.780;9.216;2023-07-22T07:01:58;44.87;;;2.40;;
1703;SDS011;849;48.780;9.216;2023-07-22T07:04:29;44.80;;;2.07;;
1703;SDS011;849;48.780;9.216;2023-07-22T07:07:00;44.90;;;2.33;;
1703;SDS011;849;48.780;9.216;2023-07-22T07:09:31;44.80;;;2.30;;
1703;SDS011;849;48.780;9.216;2023-07-22T07:12:01;44.90;;;2.20;;
1703;SDS011;849;48.780;9.216;2023-07-22T07:14:32;44.80;;;2.30;;
1703;SDS011;849;48.780;9.216;2023-07-22T07:17:04;44.80;;;2.07;;
1703;SDS011;849;48.780;9.216;2023-07-22T07:19:35;44.70;;;2.20;;
1703;SDS011;849;48.780;9.216;2023-07-22T07:22:05;44.90;;;2.17;;
1703;SDS011;849;48.780;9.216;2023-07-22T07:24:36;44.80;;;2.10;;
1703;SDS011;849;48.780;9.216;2023-07-22T07:27:07;44.77;;;2.20;;
1703;SDS011;849;48.780;9.216;2023-07-22T07:29:38;44.70;;;2.03;;
1703;SDS011;849;48.780;9.216;2023-07-22T07:32:08;44.87;;;2.30;;
1703;SDS011;849;48.780;9.216;2023-07-22T07:34:39;44.90;;;2.20;;
1703;SDS011;849;48.780;9.216;2023-07-22T07:37:10;44.77;;;2.50;;
1703;SDS011;849;48.780;9.216;2023-07-22T07:39:41;44.80;;;2.20;;
1703;SDS011;849;48.780;9.216;2023-07-22T07:42:11;44.80;;;2.13;;
1703;SDS011;849;48.780;9.216;2023-07-22T07:44:42;44.70;;;2.10;;
1703;SDS011;849;48.780;9.216;2023-07-22T07:47:13;44.70;;;2.37;;
1703;SDS011;849;48.780;9.216;2023-07-22T07:49:44;44.77;;;2.20;;
1703;SDS011;849;48.780;9.216;2023-07-22T07:52:15;44.77;;;2.20;;
1703;SDS011;849;48.780;9.216;2023-07-22T07:54:47;44.70;;;2.07;;
1703;SDS011;849;48.780;9.216;2023-07-22T07:57:18;44.70;;;2.10;;
1703;SDS011;849;48.780;9.216;2023-07-22T07:59:49;44.80;;;2.20;;
1703;SDS011;849;48.780;9.216;2023-07-22T08:02:20;44.70;;;2.20;;
1703;SDS011;849;48.780;9.216;2023-07-22T08:04:50;44.60;;;2.50;;
1703;SDS011;849;48.780;9.216;2023-07-22T08:07:21;44.60;;;2.20;;
1703;SDS011;849;48.780;9.216;2023-07-22T08:09:53;44.90;;;2.90;;
1703;SDS011;849;48.780;9.216;2023-07-22T08:12:23;44.70;;;2.10;;
1703;SDS011;849;48.780;9.216;2023-07-22T08:14:54;44.80;;;2.47;;
1703;SDS011;849;48.780;9.216;2023-07-22T08:17:25;44.97;;;2.00;;
1703;SDS011;849;48.780;9.216;2023-07-22T08:19:56;44.40;;;2.10;;
1703;SDS011;849;48.780;9.216;2023-07-22T08:22:27;44.77;;;2.20;;
1703;SDS011;849;48.780;9.216;2023-07-22T08:24:58;44.20;;;1.97;;
1703;SDS011;849;48.780;9.216;2023-07-22T08:27:28;44.70;;;2.33;;
1703;SDS011;849;48.780;9.216;2023-07-22T08:29:59;44.60;;;2.13;;
1703;SDS011;849;48.780;9.216;2023-07-22T08:32:30;44.73;;;2.10;;
1703;SDS011;849;48.780;9.216;2023-07-22T08:35:01;44.37;;;2.20;;
1703;SDS011;849;48.780;9.216;2023-07-22T08:37:31;44.30;;;2.03;;
1703;SDS011;849;48.780;9.216;2023-07-22T08:40:03;43.70;;;2.00;;
1703;SDS011;849;48.780;9.216;2023-07-22T08:42:35;44.70;;;2.30;;
1703;SDS011;849;48.780;9.216;2023-07-22T08:45:09;44.63;;;2.00;;
1703;SDS011;849;48.780;9.216;2023-07-22T08:47:45;44.30;;;1.90;;
1703;SDS011;849;48.780;9.216;2023-07-22T08:50:19;44.40;;;2.00;;
1703;SDS011;849;48.780;9.216;2023-07-22T08:52:52;44.97;;;2.73;;
1703;SDS011;849;48.780;9.216;2023-07-22T08:55:24;44.30;;;2.00;;
1703;SDS011;849;48.780;9.216;2023-07-22T08:57:55;44.00;;;2.07;;
1703;SDS011;849;48.780;9.216;2023-07-22T09:00:27;44.20;;;2.07;;
1703;SDS011;849;48.780;9.216;2023-07-22T09:02:58;44.00;;;2.07;;
1703;SDS011;849;48.780;9.216;2023-07-22T09:05:31;44.10;;;2.00;;
1703;SDS011;849;48.780;9.216;2023-07-22T09:08:04;44.83;;;2.10;;
1703;SDS011;849;48.780;9.216;2023-07-22T09:10:37;44.50;;;2.10;;
1703;SDS011;849;48.780;9.216;2023-07-22T09:13:08;44.60;;;2.17;;
1703;SDS011;849;48.780;9.216;2023-07-22T09:15:39;44.50;;;2.27;;
1703;SDS011;849;48.780;9.216;2023-07-22T09:18:11;44.10;;;2.20;;
1703;SDS011;849;48.780;9.216;2023-07-22T09:20:41;44.60;;;2.10;;
1703;SDS011;849;48.780;9.216;2023-07-22T09:23:13;44.73;;;2.17;;
1703;SDS011;849;48.780;9.216;2023-07-22T09:25:43;44.50;;;2.20;;
1703;SDS011;849;48.780;9.216;2023-07-22T09:28:14;44.97;;;2.23;;
1703;SDS011;849;48.780;9.216;2023-07-22T09:30:45;44.80;;;2.20;;
1703;SDS011;849;48.780;9.216;2023-07-22T09:33:20;44.80;;;2.30;;
1703;SDS011;849;48.780;9.216;2023-07-22T09:35:52;45.10;;;2.30;;
1703;SDS011;849;48.780;9.216;2023-07-22T09:38:25;45.07;;;2.30;;
1703;SDS011;849;48.780;9.216;2023-07-22T09:40:56;44.90;;;2.30;;
1703;SDS011;849;48.780;9.216;2023-07-22T09:43:27;45.27;;;2.20;;
1703;SDS011;849;48.780;9.216;2023-07-22T09:46:07;44.67;;;2.23;;
1703;SDS011;849;48.780;9.216;2023-07-22T09:48:39;44.70;;;2.30;;
1703;SDS011;849;48.780;9.216;2023-07-22T09:51:12;45.00;;;2.30;;
1703;SDS011;849;48.780;9.216;2023-07-22T09:53:45;45.10;;;2.50;;
1703;SDS011;849;48.780;9.216;2023-07-22T09:56:16;44.70;;;2.30;;
1703;SDS011;849;48.780;9.216;2023-07-22T09:58:47;45.20;;;2.40;;
1703;SDS011;849;48.780;9.216;2023-07-22T10:01:19;44.60;;;2.40;;
1703;SDS011;849;48.780;9.216;2023-07-22T10:03:53;45.20;;;2.30;;
1703;SDS011;849;48.780;9.216;2023-07-22T10:06:27;45.00;;;2.13;;
1703;SDS011;849;48.780;9.216;2023-07-22T10:09:02;44.77;;;2.40;;
1703;SDS011;849;48.780;9.216;2023-07-22T10:11:38;44.70;;;2.10;;
1703;SDS011;849;48.780;9.216;2023-07-22T10:14:10;44.90;;;2.20;;
1703;SDS011;849;48.780;9.216;2023-07-22T10:16:44;45.00;;;2.20;;
1703;SDS011;849;48.780;9.216;2023-07-22T10:19:15;45.10;;;2.17;;
1703;SDS011;849;48.780;9.216;2023-07-22T10:21:46;45.10;;;2.50;;
1703;SDS011;849;48.780;9.216;2023-07-22T10:24:18;45.50;;;2.33;;
1703;SDS011;849;48.780;9.216;2023-07-22T10:26:51;44.90;;;2.17;;
1703;SDS011;849;48.780;9.216;2023-07-22T10:29:22;45.20;;;2.40;;
1703;SDS011;849;48.780;9.216;2023-07-22T10:31:55;45.10;;;2.47;;
1703;SDS011;849;48.780;9.216;2023-07-22T10:34:26;45.50;;;2.43;;
1703;SDS011;849;48.780;9.216;2023-07-22T10:36:57;45.20;;;2.30;;
1703;SDS011;849;48.780;9.216;2023-07-22T10:39:28;45.30;;;2.40;;
1703;SDS011;849;48.780;9.216;2023-07-22T10:42:05;45.10;;;2.30;;
1703;SDS011;849;48.780;9.216;2023-07-22T10:44:37;45.40;;;2.30;;
1703;SDS011;849;48.780;9.216;2023-07-22T10:47:09;45.20;;;2.40;;
1703;SDS011;849;48.780;9.216;2023-07-22T10:49:44;45.00;;;2.20;;
1703;SDS011;849;48.780;9.216;2023-07-22T10:52:30;45.20;;;2.40;;
1703;SDS011;849;48.780;9.216;2023-07-22T10:55:14;44.60;;;2.30;;
1703;SDS011;849;48.780;9.216;2023-07-22T10:57:47;45.10;;;2.50;;
1703;SDS011;849;48.780;9.216;2023-07-22T11:00:20;44.90;;;2.30;;
1703;SDS011;849;48.780;9.216;2023-07-22T11:05:49;45.30;;;2.60;;
1703;SDS011;849;48.780;9.216;2023-07-22T11:08:37;45.27;;;2.40;;
1703;SDS011;849;48.780;9.216;2023-07-22T11:11:09;45.60;;;2.43;;
1703;SDS011;849;48.780;9.216;2023-07-22T11:13:41;45.50;;;2.30;;
1703;SDS011;849;48.780;9.216;2023-07-22T11:16:12;45.20;;;2.47;;
1703;SDS011;849;48.780;9.216;2023-07-22T11:18:43;44.90;;;2.40;;
1703;SDS011;849;48.780;9.216;2023-07-22T11:21:14;45.00;;;2.33;;
1703;SDS011;849;48.780;9.216;2023-07-22T11:23:44;45.53;;;2.30;;
1703;SDS011;849;48.780;9.216;2023-07-22T11:26:15;45.57;;;2.50;;
1703;SDS011;849;48.780;9.216;2023-07-22T11:28:47;45.23;;;2.30;;
1703;SDS011;849;48.780;9.216;2023-07-22T11:31:18;45.20;;;2.30;;
1703;SDS011;849;48.780;9.216;2023-07-22T11:33:49;45.20;;;2.30;;
1703;SDS011;849;48.780;9.216;2023-07-22T11:36:20;45.40;;;2.40;;
1703;SDS011;849;48.780;9.216;2023-07-22T11:38:51;44.80;;;2.50;;
1703;SDS011;849;48.780;9.216;2023-07-22T11:41:22;45.00;;;2.20;;
1703;SDS011;849;48.780;9.216;2023-07-22T11:43:56;45.50;;;2.50;;
1703;SDS011;849;48.780;9.216;2023-07-22T11:46:28;45.20;;;2.37;;
1703;SDS011;849;48.780;9.216;2023-07-22T11:48:59;45.20;;;2.40;;
1703;SDS011;849;48.780;9.216;2023-07-22T11:51:30;45.20;;;2.20;;
1703;SDS011;849;48.780;9.216;2023-07-22T11:54:02;45.20;;;2.30;;
1703;SDS011;849;48.780;9.216;2023-07-22T11:56:33;45.20;;;2.17;;
1703;SDS011;849;48.780;9.216;2023-07-22T11:59:03;45.40;;;2.40;;
1703;SDS011;849;48.780;9.216;2023-07-22T12:01:34;45.07;;;2.33;;
1703;SDS011;849;48.780;9.216;2023-07-22T12:04:12;45.20;;;2.33;;
1703;SDS011;849;48.780;9.216;2023-07-22T12:06:43;45.20;;;2.20;;
1703;SDS011;849;48.780;9.216;2023-07-22T12:09:14;45.47;;;2.20;;
1703;SDS011;849;48.780;9.216;2023-07-22T12:11:45;45.00;;;2.23;;
1703;SDS011;849;48.780;9.216;2023-07-22T12:14:16;45.47;;;2.30;;
1703;SDS011;849;48.780;9.216;2023-07-22T12:16:47;45.47;;;2.23;;
1703;SDS011;849;48.780;9.216;2023-07-22T12:19:22;45.20;;;2.30;;
1703;SDS011;849;48.780;9.216;2023-07-22T12:21:53;45.10;;;1.90;;
1703;SDS011;849;48.780;9.216;2023-07-22T12:24:24;44.90;;;2.30;;
1703;SDS011;849;48.780;9.216;2023-07-22T12:26:55;45.10;;;2.30;;
1703;SDS011;849;48.780;9.216;2023-07-22T12:29:26;45.30;;;2.60;;
1703;SDS011;849;48.780;9.216;2023-07-22T12:31:56;45.10;;;2.33;;
1703;SDS011;849;48.780;9.216;2023-07-22T12:34:27;45.30;;;2.10;;
1703;SDS011;849;48.780;9.216;2023-07-22T12:36:58;45.47;;;3.03;;
1703;SDS011;849;48.780;9.216;2023-07-22T12:39:29;45.20;;;2.40;;
1703;SDS011;849;48.780;9.216;2023-07-22T12:41:59;45.20;;;2.40;;
1703;SDS011;849;48.780;9.216;2023-07-22T12:44:30;45.23;;;2.20;;
1703;SDS011;849;48.780;9.216;2023-07-22T12:47:01;44.90;;;2.20;;
1703;SDS011;849;48.780;9.216;2023-07-22T12:49:32;45.30;;;2.17;;
1703;SDS011;849;48.780;9.216;2023-07-22T12:52:03;45.07;;;2.10;;
1703;SDS011;849;48.780;9.216;2023-07-22T12:54:35;45.00;;;2.20;;
1703;SDS011;849;48.780;9.216;2023-07-22T12:57:06;45.17;;;2.10;;
1703;SDS011;849;48.780;9.216;2023-07-22T12:59:37;45.10;;;2.10;;
1703;SDS011;849;48.780;9.216;2023-07-22T13:02:08;45.27;;;2.37;;
1703;SDS011;849;48.780;9.216;2023-07-22T13:04:39;45.10;;;2.30;;
1703;SDS011;849;48.780;9.216;2023-07-22T13:07:09;44.50;;;2.20;;
1703;SDS011;849;48.780;9.216;2023-07-22T13:09:40;45.23;;;2.40;;
1703;SDS011;849;48.780;9.216;2023-07-22T13:12:13;45.20;;;2.10;;
1703;SDS011;849;48.780;9.216;2023-07-22T13:14:45;45.20;;;2.10;;
1703;SDS011;849;48.780;9.216;2023-07-22T13:17:16;45.17;;;2.03;;
1703;SDS011;849;48.780;9.216;2023-07-22T13:19:46;45.20;;;2.00;;
1703;SDS011;849;48.780;9.216;2023-07-22T13:22:17;45.60;;;2.83;;
1703;SDS011;849;48.780;9.216;2023-07-22T13:24:48;45.13;;;2.20;;
1703;SDS011;849;48.780;9.216;2023-07-22T13:27:19;45.27;;;2.20;;
1703;SDS011;849;48.780;9.216;2023-07-22T13:29:49;45.20;;;2.20;;
1703;SDS011;849;48.780;9.216;2023-07-22T13:32:20;45.40;;;2.37;;
1703;SDS011;849;48.780;9.216;2023-07-22T13:34:51;45.10;;;2.27;;
1703;SDS011;849;48.780;9.216;2023-07-22T13:37:22;45.10;;;2.27;;
1703;SDS011;849;48.780;9.216;2023-07-22T13:39:52;45.10;;;2.20;;
1703;SDS011;849;48.780;9.216;2023-07-22T13:42:23;45.13;;;2.60;;
1703;SDS011;849;48.780;9.216;2023-07-22T13:44:54;45.20;;;2.30;;
1703;SDS011;849;48.780;9.216;2023-07-22T13:47:25;45.30;;;2.50;;
1703;SDS011;849;48.780;9.216;2023-07-22T13:49:56;45.20;;;2.20;;
1703;SDS011;849;48.780;9.216;2023-07-22T13:52:27;45.30;;;2.70;;
1703;SDS011;849;48.780;9.216;2023-07-22T13:54:57;45.00;;;2.43;;
1703;SDS011;849;48.780;9.216;2023-07-22T13:57:28;44.80;;;2.37;;
1703;SDS011;849;48.780;9.216;2023-07-22T13:59:59;44.57;;;2.20;;
1703;SDS011;849;48.780;9.216;2023-07-22T14:02:30;45.20;;;2.50;;
1703;SDS011;849;48.780;9.216;2023-07-22T14:05:00;45.10;;;2.20;;
1703;SDS011;849;48.780;9.216;2023-07-22T14:07:31;45.10;;;2.10;;
1703;SDS011;849;48.780;9.216;2023-07-22T14:10:02;45.00;;;2.23;;
1703;SDS011;849;48.780;9.216;2023-07-22T14:12:35;45.70;;;3.70;;
1703;SDS011;849;48.780;9.216;2023-07-22T14:15:06;45.43;;;2.40;;
1703;SDS011;849;48.780;9.216;2023-07-22T14:17:37;45.27;;;2.60;;
1703;SDS011;849;48.780;9.216;2023-07-22T14:20:11;45.00;;;2.53;;
1703;SDS011;849;48.780;9.216;2023-07-22T14:22:41;45.20;;;2.50;;
1703;SDS011;849;48.780;9.216;2023-07-22T14:25:15;45.20;;;2.40;;
1703;SDS011;849;48.780;9.216;2023-07-22T14:27:46;45.20;;;2.27;;
1703;SDS011;849;48.780;9.216;2023-07-22T14:30:17;45.20;;;2.40;;
1703;SDS011;849;48.780;9.216;2023-07-22T14:32:51;45.40;;;2.63;;
1703;SDS011;849;48.780;9.216;2023-07-22T14:35:22;45.10;;;2.10;;
1703;SDS011;849;48.780;9.216;2023-07-22T14:37:53;44.90;;;2.30;;
1703;SDS011;849;48.780;9.216;2023-07-22T14:40:23;45.20;;;2.30;;
1703;SDS011;849;48.780;9.216;2023-07-22T14:42:55;45.10;;;2.40;;
1703;SDS011;849;48.780;9.216;2023-07-22T14:45:28;44.90;;;2.47;;
1703;SDS011;849;48.780;9.216;2023-07-22T14:47:57;45.13;;;2.73;;
1703;SDS011;849;48.780;9.216;2023-07-22T14:50:29;45.20;;;2.50;;
1703;SDS011;849;48.780;9.216;2023-07-22T14:53:00;45.30;;;2.60;;
1703;SDS011;849;48.780;9.216;2023-07-22T14:55:35;45.30;;;2.50;;
1703;SDS011;849;48.780;9.216;2023-07-22T14:58:06;45.10;;;2.30;;
1703;SDS011;849;48.780;9.216;2023-07-22T15:00:36;45.17;;;2.20;;
1703;SDS011;849;48.780;9.216;2023-07-22T15:03:07;45.10;;;2.43;;
1703;SDS011;849;48.780;9.216;2023-07-22T15:05:38;45.17;;;2.20;;
1703;SDS011;849;48.780;9.216;2023-07-22T15:08:09;44.97;;;2.20;;
1703;SDS011;849;48.780;9.216;2023-07-22T15:10:39;44.90;;;2.10;;
1703;SDS011;849;48.780;9.216;2023-07-22T15:13:10;45.00;;;2.43;;
1703;SDS011;849;48.780;9.216;2023-07-22T15:15:41;44.83;;;2.13;;
1703;SDS011;849;48.780;9.216;2023-07-22T15:18:12;45.17;;;2.27;;
1703;SDS011;849;48.780;9.216;2023-07-22T15:20:43;45.17;;;2.60;;
1703;SDS011;849;48.780;9.216;2023-07-22T15:23:13;44.90;;;2.13;;
1703;SDS011;849;48.780;9.216;2023-07-22T15:25:44;45.10;;;2.27;;
1703;SDS011;849;48.780;9.216;2023-07-22T15:28:15;45.20;;;2.83;;
1703;SDS011;849;48.780;9.216;2023-07-22T15:30:46;45.10;;;2.30;;
1703;SDS011;849;48.780;9.216;2023-07-22T15:33:17;44.90;;;2.40;;
1703;SDS011;849;48.780;9.216;2023-07-22T15:35:48;45.13;;;2.30;;
1703;SDS011;849;48.780;9.216;2023-07-22T15:38:18;45.10;;;2.50;;
1703;SDS011;849;48.780;9.216;2023-07-22T15:40:50;45.70;;;1.95;;
1703;SDS011;849;48.780;9.216;2023-07-22T15:43:20;45.30;;;2.40;;
1703;SDS011;849;48.780;9.216;2023-07-22T15:45:51;44.90;;;2.30;;